Time;durP1;ratioP1;P1;durP2;ratioP2;P2;SDS_P1;SDS_P2;PMS_P1;PMS_P2;Temp;Humidity;BMP_temperature;BMP_pressure;BME280_temperature;BME280_humidity;BME280_pressure;Samples;Min_cycle;Max_cycle;Signal;HPM_P1;HPM_P2
2022/02/21 00:04:31;;;;;;;1.27;0.40;;;6.60;99.90;;;;;;12495832;28;20048;-83
2022/02/21 00:10:33;;;;;;;1.90;0.30;;;6.60;99.90;;;;;;12510735;28;20144;-84
2022/02/21 00:16:35;;;;;;;1.05;0.30;;;6.60;99.90;;;;;;12513557;28;20081;-85
2022/02/21 00:22:37;;;;;;;0.85;0.20;;;6.50;99.90;;;;;;12518978;28;20045;-88
2022/02/21 00:28:39;;;;;;;4.32;0.50;;;6.70;99.90;;;;;;12514726;28;20073;-82
2022/02/21 00:34:41;;;;;;;2.30;0.30;;;6.70;99.90;;;;;;12515219;28;20525;-83
2022/02/21 00:40:43;;;;;;;3.97;0.75;;;6.60;99.90;;;;;;12511067;28;20626;-86
2022/02/21 00:46:45;;;;;;;2.53;0.47;;;6.50;99.90;;;;;;12531277;28;20536;-84
2022/02/21 00:52:47;;;;;;;3.00;0.70;;;6.50;99.90;;;;;;12526404;28;20128;-83
2022/02/21 00:58:49;;;;;;;1.35;0.40;;;6.50;99.90;;;;;;12512483;28;20260;-84
2022/02/21 01:04:51;;;;;;;3.25;0.40;;;6.50;99.90;;;;;;12510729;28;20056;-85
2022/02/21 01:10:53;;;;;;;1.50;0.60;;;6.40;99.90;;;;;;12535139;28;20041;-86
2022/02/21 01:16:55;;;;;;;4.22;0.93;;;6.20;99.90;;;;;;12530379;28;20772;-84
2022/02/21 01:22:57;;;;;;;1.92;0.60;;;6.20;99.90;;;;;;12516266;28;20060;-85
2022/02/21 01:28:59;;;;;;;5.85;1.38;;;6.10;99.90;;;;;;12513783;28;20049;-86
2022/02/21 01:35:01;;;;;;;4.03;0.90;;;6.10;99.90;;;;;;12524027;28;20207;-88
2022/02/21 01:41:03;;;;;;;5.57;1.05;;;6.10;99.90;;;;;;12519627;28;20132;-86
2022/02/21 01:47:07;;;;;;;4.68;1.08;;;6.10;99.90;;;;;;12543714;28;20231;-84
2022/02/21 01:53:11;;;;;;;4.30;0.80;;;6.00;99.90;;;;;;12544418;28;20497;-84
2022/02/21 01:59:12;;;;;;;1.92;0.50;;;5.80;99.90;;;;;;12508851;28;20099;-85
2022/02/21 02:05:16;;;;;;;6.30;0.70;;;5.00;99.90;;;;;;12523863;28;20060;-86
2022/02/21 02:11:17;;;;;;;2.80;0.70;;;5.10;99.90;;;;;;12533906;28;20086;-82
2022/02/21 02:17:19;;;;;;;4.47;0.80;;;5.10;99.90;;;;;;12540430;28;20075;-85
2022/02/21 02:23:22;;;;;;;5.00;1.25;;;4.90;99.90;;;;;;12532946;28;20033;-86
2022/02/21 02:29:24;;;;;;;6.90;1.10;;;5.00;99.90;;;;;;12566663;28;20061;-86
2022/02/21 02:35:27;;;;;;;12.73;1.38;;;5.10;99.90;;;;;;12555689;28;20052;-82
2022/02/21 02:41:29;;;;;;;9.13;1.90;;;5.30;99.90;;;;;;12531055;28;20674;-85
2022/02/21 02:47:36;;;;;;;9.63;1.17;;;5.40;99.90;;;;;;12558063;28;20048;-87
2022/02/21 02:53:38;;;;;;;7.68;1.33;;;4.80;99.90;;;;;;12549189;28;20037;-86
2022/02/21 02:59:40;;;;;;;8.05;1.20;;;4.40;99.90;;;;;;12509709;28;20108;-85
2022/02/21 03:05:42;;;;;;;7.13;1.15;;;4.20;99.90;;;;;;12512422;28;20121;-86
2022/02/21 03:11:44;;;;;;;9.60;1.30;;;4.20;99.90;;;;;;12505267;28;20458;-86
2022/02/21 03:17:46;;;;;;;8.80;1.70;;;4.30;99.90;;;;;;12520888;28;20064;-84
2022/02/21 03:23:48;;;;;;;6.65;0.90;;;4.30;99.90;;;;;;12538928;28;20083;-88
2022/02/21 03:29:50;;;;;;;7.85;1.48;;;3.80;99.90;;;;;;12520367;28;20059;-84
2022/02/21 03:35:51;;;;;;;10.88;1.30;;;3.60;99.90;;;;;;12535934;28;20121;-86
2022/02/21 03:41:53;;;;;;;12.10;1.80;;;3.70;99.90;;;;;;12524931;28;20084;-84
2022/02/21 03:47:55;;;;;;;14.15;2.15;;;3.80;99.90;;;;;;12512347;28;21072;-85
2022/02/21 03:53:57;;;;;;;10.65;2.20;;;3.90;99.90;;;;;;12528155;28;20568;-84
2022/02/21 03:59:59;;;;;;;21.30;2.45;;;3.90;99.90;;;;;;12522166;28;20129;-85
2022/02/21 04:06:01;;;;;;;12.32;2.33;;;4.00;99.90;;;;;;12511891;28;20508;-84
2022/02/21 04:12:07;;;;;;;13.93;1.90;;;4.10;99.90;;;;;;12498371;28;20094;-86
2022/02/21 04:18:09;;;;;;;15.98;2.08;;;4.10;99.90;;;;;;12539232;28;20049;-87
2022/02/21 04:24:11;;;;;;;12.20;1.77;;;4.10;99.90;;;;;;12530541;28;20412;-84
2022/02/21 04:30:15;;;;;;;8.82;1.67;;;3.70;99.90;;;;;;12510682;28;20055;-85
2022/02/21 04:36:17;;;;;;;12.23;2.10;;;3.50;99.90;;;;;;12515996;28;20157;-85
2022/02/21 04:42:19;;;;;;;13.65;1.30;;;3.50;99.90;;;;;;12505482;28;20526;-83
2022/02/21 04:48:23;;;;;;;8.25;1.30;;;3.60;99.90;;;;;;12503689;28;20072;-86
2022/02/21 04:54:25;;;;;;;11.77;1.35;;;3.70;99.90;;;;;;12513042;28;20056;-85
2022/02/21 05:00:27;;;;;;;10.10;1.50;;;3.70;99.90;;;;;;12524737;28;20049;-83
2022/02/21 05:06:36;;;;;;;7.65;1.30;;;3.70;99.90;;;;;;12546115;28;20053;-89
2022/02/21 05:12:38;;;;;;;5.22;1.00;;;3.50;99.90;;;;;;12496422;28;20049;-82
2022/02/21 05:18:40;;;;;;;6.47;1.10;;;3.20;99.90;;;;;;12493214;28;20045;-83
2022/02/21 05:24:42;;;;;;;10.15;1.40;;;3.00;99.90;;;;;;12527603;28;20048;-87
2022/02/21 05:30:44;;;;;;;12.18;1.52;;;2.90;99.90;;;;;;12516417;28;20729;-85
2022/02/21 05:36:46;;;;;;;7.28;1.17;;;3.10;99.90;;;;;;12533363;28;20088;-84
2022/02/21 05:42:48;;;;;;;7.45;1.33;;;3.20;99.90;;;;;;12543348;28;20052;-85
2022/02/21 05:48:50;;;;;;;7.18;1.50;;;3.20;99.90;;;;;;12574130;28;20056;-85
2022/02/21 05:54:52;;;;;;;10.60;1.92;;;3.20;99.90;;;;;;12542748;28;20049;-82
2022/02/21 06:00:55;;;;;;;11.98;1.83;;;3.10;99.90;;;;;;12568218;28;20036;-87
2022/02/21 06:06:57;;;;;;;6.17;1.20;;;3.10;99.90;;;;;;12521574;28;20104;-85
2022/02/21 06:12:59;;;;;;;6.18;1.70;;;3.10;99.90;;;;;;12468397;28;20512;-85
2022/02/21 06:19:01;;;;;;;6.90;1.52;;;3.00;99.90;;;;;;12488123;28;20462;-85
2022/02/21 06:25:04;;;;;;;9.60;1.67;;;3.10;99.90;;;;;;12473644;28;20050;-84
2022/02/21 06:31:09;;;;;;;11.40;1.85;;;3.10;99.90;;;;;;12482034;28;20721;-85
2022/02/21 06:37:12;;;;;;;14.30;1.88;;;3.00;99.90;;;;;;12499934;28;20387;-85
2022/02/21 06:43:16;;;;;;;8.40;1.98;;;3.00;99.90;;;;;;12485357;28;20045;-85
2022/02/21 06:49:18;;;;;;;7.43;1.83;;;3.10;99.90;;;;;;12484864;28;20077;-86
2022/02/21 06:55:20;;;;;;;9.90;1.88;;;3.20;99.90;;;;;;12467675;28;20041;-83
2022/02/21 07:01:22;;;;;;;9.05;1.63;;;3.10;99.90;;;;;;12505573;28;20045;-86
2022/02/21 07:07:24;;;;;;;10.57;1.45;;;3.00;99.90;;;;;;12495921;28;20611;-85
2022/02/21 07:13:26;;;;;;;16.10;2.25;;;3.00;99.90;;;;;;12547737;28;20109;-84
2022/02/21 07:19:28;;;;;;;11.60;1.60;;;3.10;99.90;;;;;;12546320;28;20049;-85
2022/02/21 07:25:30;;;;;;;14.93;1.92;;;3.30;99.90;;;;;;12541684;28;20071;-85
2022/02/21 07:31:33;;;;;;;14.48;2.10;;;3.30;99.90;;;;;;12543764;28;20056;-85
2022/02/21 07:37:35;;;;;;;9.88;1.67;;;3.30;99.90;;;;;;12537782;28;20053;-84
2022/02/21 07:43:37;;;;;;;9.50;1.52;;;3.30;99.90;;;;;;12532057;28;20065;-81
2022/02/21 07:49:39;;;;;;;12.43;1.90;;;3.40;99.90;;;;;;12550196;28;20052;-83
2022/02/21 07:55:41;;;;;;;13.18;1.83;;;3.40;99.90;;;;;;12526145;28;20060;-83
2022/02/21 08:01:43;;;;;;;16.13;2.05;;;3.50;99.90;;;;;;12521575;28;20073;-82
2022/02/21 08:07:46;;;;;;;15.75;2.22;;;3.50;99.90;;;;;;12502944;28;20130;-84
2022/02/21 08:13:48;;;;;;;23.55;2.50;;;3.60;99.90;;;;;;12528869;28;20059;-85
2022/02/21 08:19:50;;;;;;;13.55;1.67;;;3.70;99.90;;;;;;12501368;28;20526;-83
2022/02/21 08:25:52;;;;;;;10.57;2.10;;;3.80;99.90;;;;;;12538317;28;20048;-84
2022/02/21 08:31:57;;;;;;;17.95;2.25;;;3.70;99.90;;;;;;12516423;28;20049;-83
2022/02/21 08:38:02;;;;;;;12.65;1.95;;;3.70;99.90;;;;;;12531313;28;20545;-83
2022/02/21 08:44:07;;;;;;;12.98;2.17;;;3.80;99.90;;;;;;12512800;28;20049;-84
2022/02/21 08:50:10;;;;;;;11.40;1.80;;;3.80;99.90;;;;;;12518676;28;20040;-84
2022/02/21 08:56:12;;;;;;;10.43;1.92;;;3.80;99.90;;;;;;12549374;28;20061;-80
2022/02/21 09:02:16;;;;;;;10.13;2.10;;;3.80;99.90;;;;;;12565939;28;20040;-85
2022/02/21 09:08:38;;;;;;;16.33;2.13;;;3.90;99.90;;;;;;12569212;28;20061;-82
2022/02/21 09:14:46;;;;;;;15.60;2.30;;;4.00;99.90;;;;;;12522188;28;20056;-83
2022/02/21 09:20:48;;;;;;;15.48;2.22;;;4.00;99.90;;;;;;12528963;28;20044;-82
2022/02/21 09:26:54;;;;;;;11.52;1.90;;;4.00;99.90;;;;;;12547096;28;20042;-84
2022/02/21 09:32:56;;;;;;;14.38;2.03;;;4.10;99.90;;;;;;12524436;28;20105;-82
2022/02/21 09:38:59;;;;;;;11.13;1.70;;;4.20;99.90;;;;;;12518554;28;20067;-81
2022/02/21 09:45:01;;;;;;;13.45;2.22;;;4.20;99.90;;;;;;12520266;28;20038;-81
2022/02/21 09:51:04;;;;;;;13.13;1.80;;;4.20;99.90;;;;;;12530245;28;20060;-83
2022/02/21 09:57:07;;;;;;;17.13;2.65;;;4.30;99.90;;;;;;12531192;28;20507;-82
2022/02/21 10:03:09;;;;;;;13.90;3.05;;;4.30;99.90;;;;;;12537307;28;20045;-82
2022/02/21 10:09:12;;;;;;;17.98;3.28;;;4.30;99.90;;;;;;12526556;28;20061;-82
2022/02/21 10:15:20;;;;;;;15.35;2.53;;;4.40;99.90;;;;;;12520185;28;20064;-82
2022/02/21 10:21:22;;;;;;;15.27;4.22;;;4.40;99.90;;;;;;12539400;28;20038;-81
2022/02/21 10:27:30;;;;;;;10.77;2.25;;;4.30;99.90;;;;;;12539788;28;20137;-83
2022/02/21 10:33:32;;;;;;;8.18;2.53;;;4.30;99.90;;;;;;12518201;28;20037;-82
2022/02/21 10:39:36;;;;;;;10.45;2.40;;;4.50;99.90;;;;;;12535529;28;20219;-86
2022/02/21 10:45:39;;;;;;;14.40;2.13;;;4.50;99.90;;;;;;12512909;28;20056;-81
2022/02/21 10:51:46;;;;;;;13.27;3.35;;;4.50;99.90;;;;;;12530165;28;20052;-83
2022/02/21 10:57:48;;;;;;;7.15;2.80;;;4.20;99.90;;;;;;12521425;28;20038;-84
2022/02/21 11:03:51;;;;;;;15.10;3.55;;;3.80;99.90;;;;;;12525676;28;20046;-88
2022/02/21 11:09:59;;;;;;;11.35;3.30;;;3.50;99.90;;;;;;12534986;28;20049;-86
2022/02/21 11:16:02;;;;;;;11.68;3.60;;;3.10;99.90;;;;;;12520899;28;20028;-86
2022/02/21 11:22:05;;;;;;;14.98;3.75;;;3.00;99.90;;;;;;12530118;28;20525;-84
2022/02/21 11:28:24;;;;;;;10.55;2.95;;;2.70;99.90;;;;;;12532484;28;20523;-85
2022/02/21 11:34:26;;;;;;;10.05;3.00;;;2.60;99.90;;;;;;12531827;28;20051;-86
2022/02/21 11:40:48;;;;;;;8.23;2.50;;;2.60;99.90;;;;;;12533701;28;20040;-86
2022/02/21 11:46:50;;;;;;;7.03;2.70;;;2.40;99.90;;;;;;12539160;28;20594;-86
2022/02/21 11:52:56;;;;;;;7.85;2.40;;;2.30;99.90;;;;;;12524509;28;20131;-85
2022/02/21 11:59:23;;;;;;;10.40;2.45;;;2.40;99.90;;;;;;12531506;28;20055;-87
2022/02/21 12:05:27;;;;;;;9.30;1.92;;;2.50;99.90;;;;;;12530467;28;20056;-86
2022/02/21 12:11:51;;;;;;;4.70;1.47;;;2.50;99.90;;;;;;12525200;28;20731;-85
2022/02/21 12:18:09;;;;;;;6.13;1.50;;;2.80;99.90;;;;;;12528081;28;20041;-85
2022/02/21 12:24:15;;;;;;;7.60;1.73;;;2.80;99.90;;;;;;12547727;28;20028;-88
2022/02/21 12:30:34;;;;;;;6.22;1.88;;;2.90;99.90;;;;;;12533305;28;20448;-84
2022/02/21 12:36:48;;;;;;;6.43;1.75;;;3.00;99.90;;;;;;12542580;28;20041;-85
2022/02/21 12:42:56;;;;;;;6.97;1.70;;;3.20;99.90;;;;;;12519367;28;20106;-83
2022/02/21 12:48:59;;;;;;;6.38;1.98;;;3.20;99.90;;;;;;12526636;28;20048;-84
2022/02/21 12:55:01;;;;;;;5.45;1.98;;;3.20;99.90;;;;;;12528763;28;20456;-83
2022/02/21 13:01:12;;;;;;;10.80;2.47;;;3.30;99.90;;;;;;12524273;28;20068;-84
2022/02/21 13:07:18;;;;;;;7.55;2.15;;;3.50;99.90;;;;;;12511488;28;20532;-84
2022/02/21 13:13:21;;;;;;;10.15;2.85;;;3.60;99.90;;;;;;12544900;28;20042;-83
2022/02/21 13:19:25;;;;;;;6.40;1.98;;;3.60;99.90;;;;;;12524234;28;20101;-83
2022/02/21 13:25:27;;;;;;;6.25;2.10;;;3.60;99.90;;;;;;12530109;28;20064;-85
2022/02/21 13:31:29;;;;;;;4.43;2.08;;;3.60;99.90;;;;;;12524587;28;20041;-87
2022/02/21 13:37:34;;;;;;;4.03;1.50;;;3.70;99.90;;;;;;12531785;28;20085;-85
2022/02/21 13:43:39;;;;;;;5.88;1.65;;;3.60;99.90;;;;;;12512870;28;20056;-88
2022/02/21 13:49:43;;;;;;;4.32;1.60;;;3.60;99.90;;;;;;12509369;28;20056;-86
2022/02/21 13:56:09;;;;;;;5.03;2.03;;;3.70;99.90;;;;;;12527245;28;20045;-87
2022/02/21 14:02:27;;;;;;;6.00;1.85;;;3.70;99.90;;;;;;12541244;28;20207;-85
2022/02/21 14:08:48;;;;;;;4.45;2.20;;;3.80;99.90;;;;;;12548988;28;20346;-86
2022/02/21 14:14:54;;;;;;;7.50;2.80;;;3.90;99.90;;;;;;12530604;28;20045;-85
2022/02/21 14:20:56;;;;;;;4.07;2.40;;;4.00;99.90;;;;;;12526518;28;20068;-88
2022/02/21 14:26:58;;;;;;;5.38;2.40;;;4.10;99.90;;;;;;12534203;28;20060;-89
2022/02/21 14:33:01;;;;;;;4.53;1.40;;;4.20;99.90;;;;;;12510544;28;20053;-86
2022/02/21 14:39:10;;;;;;;5.97;1.73;;;4.20;99.90;;;;;;12520521;28;20590;-87
2022/02/21 14:45:12;;;;;;;2.40;1.40;;;4.20;99.90;;;;;;12532738;28;20041;-86
2022/02/21 14:51:17;;;;;;;2.08;1.20;;;4.20;99.90;;;;;;12520084;28;20473;-84
2022/02/21 14:57:20;;;;;;;3.00;1.35;;;4.20;99.90;;;;;;12544633;28;21191;-88
2022/02/21 15:03:22;;;;;;;2.45;1.27;;;4.20;99.90;;;;;;12543669;28;20117;-88
2022/02/21 15:09:31;;;;;;;3.40;1.33;;;4.30;99.90;;;;;;12520999;28;20079;-87
2022/02/21 15:15:33;;;;;;;4.78;1.40;;;4.40;99.90;;;;;;12546992;28;20183;-88
2022/02/21 15:21:39;;;;;;;4.00;1.50;;;4.60;99.90;;;;;;12519471;28;20045;-87
2022/02/21 15:27:41;;;;;;;4.22;1.20;;;4.60;99.90;;;;;;12514422;28;20486;-85
2022/02/21 15:33:44;;;;;;;4.93;1.55;;;4.70;99.90;;;;;;12508575;28;20098;-85
2022/02/21 15:39:46;;;;;;;4.03;1.83;;;4.90;99.90;;;;;;12511362;28;20068;-89
2022/02/21 15:45:48;;;;;;;4.53;1.50;;;4.90;99.90;;;;;;12506517;28;20141;-84
2022/02/21 15:51:50;;;;;;;7.35;1.70;;;5.00;99.90;;;;;;12520476;28;20105;-85
2022/02/21 15:57:52;;;;;;;5.40;1.60;;;5.00;99.90;;;;;;12516379;28;20049;-86
2022/02/21 16:03:55;;;;;;;9.10;1.90;;;5.10;99.90;;;;;;12525738;28;20045;-85
2022/02/21 16:09:57;;;;;;;10.57;1.70;;;5.30;99.90;;;;;;12506357;28;20088;-85
2022/02/21 16:15:59;;;;;;;10.45;2.72;;;5.50;99.90;;;;;;12530331;28;20045;-84
2022/02/21 16:22:01;;;;;;;11.48;2.00;;;5.60;99.90;;;;;;12513534;28;20402;-86
2022/02/21 16:28:04;;;;;;;13.75;1.77;;;5.70;99.90;;;;;;12530971;28;20051;-83
2022/02/21 16:34:05;;;;;;;12.23;1.75;;;5.80;99.90;;;;;;12533410;28;20047;-83
2022/02/21 16:40:10;;;;;;;11.80;1.75;;;5.70;99.90;;;;;;12548460;28;20064;-85
2022/02/21 16:46:12;;;;;;;11.48;2.25;;;5.70;99.90;;;;;;12515130;28;20079;-84
2022/02/21 16:52:14;;;;;;;6.25;1.70;;;5.70;99.90;;;;;;12529143;28;20045;-81
2022/02/21 16:58:16;;;;;;;5.68;1.27;;;5.60;99.90;;;;;;12550957;28;20048;-82
2022/02/21 17:04:18;;;;;;;4.00;0.90;;;5.60;99.90;;;;;;12519778;28;20080;-83
2022/02/21 17:10:23;;;;;;;5.60;1.10;;;5.50;99.90;;;;;;12530245;28;20462;-84
2022/02/21 17:16:25;;;;;;;5.57;1.23;;;5.40;99.90;;;;;;12510082;28;20053;-81
2022/02/21 17:22:28;;;;;;;8.18;1.08;;;5.30;99.90;;;;;;12531497;28;20049;-85
2022/02/21 17:28:34;;;;;;;9.30;1.30;;;5.10;99.90;;;;;;12528345;28;20048;-84
2022/02/21 17:34:36;;;;;;;5.22;2.03;;;5.00;99.90;;;;;;12527764;28;20053;-86
2022/02/21 17:40:44;;;;;;;7.32;1.55;;;5.00;99.90;;;;;;12549301;28;20049;-82
2022/02/21 17:46:48;;;;;;;7.13;1.33;;;5.10;99.90;;;;;;12527336;28;20056;-84
2022/02/21 17:52:51;;;;;;;6.65;1.42;;;5.10;99.90;;;;;;12560535;28;20127;-85
2022/02/21 17:58:53;;;;;;;6.07;1.10;;;5.10;99.90;;;;;;12547656;28;20052;-83
2022/02/21 18:04:57;;;;;;;15.63;1.92;;;5.10;99.90;;;;;;12521618;28;20052;-85
2022/02/21 18:10:59;;;;;;;6.32;1.05;;;5.00;99.90;;;;;;12514090;28;20045;-85
2022/02/21 18:17:04;;;;;;;10.10;1.63;;;4.90;99.90;;;;;;12540150;28;20524;-85
2022/02/21 18:23:08;;;;;;;9.85;1.50;;;4.90;99.90;;;;;;12530685;28;20072;-86
2022/02/21 18:29:10;;;;;;;10.15;2.00;;;4.90;99.90;;;;;;12536996;28;20497;-83
2022/02/21 18:35:12;;;;;;;12.32;1.45;;;4.80;99.90;;;;;;12517014;28;20037;-84
2022/02/21 18:41:14;;;;;;;11.05;1.38;;;4.90;99.90;;;;;;12521791;28;20048;-82
2022/02/21 18:47:15;;;;;;;15.52;2.55;;;4.80;99.90;;;;;;12528094;28;20052;-85
2022/02/21 18:53:20;;;;;;;15.02;1.90;;;4.80;99.90;;;;;;12523307;28;20044;-85
2022/02/21 18:59:28;;;;;;;12.82;1.80;;;4.80;99.90;;;;;;12521516;28;20058;-83
2022/02/21 19:05:30;;;;;;;11.38;1.92;;;4.90;99.90;;;;;;12526406;28;20049;-84
2022/02/21 19:11:32;;;;;;;8.00;1.58;;;4.90;99.90;;;;;;12528115;28;20062;-84
2022/02/21 19:17:34;;;;;;;11.93;1.40;;;5.00;99.90;;;;;;12537811;28;20932;-85
2022/02/21 19:23:36;;;;;;;16.90;2.13;;;5.00;99.90;;;;;;12533032;28;20079;-83
2022/02/21 19:29:41;;;;;;;11.05;1.95;;;5.00;99.90;;;;;;12525690;28;20069;-85
2022/02/21 19:35:43;;;;;;;9.32;1.85;;;5.00;99.90;;;;;;12538198;28;20037;-86
2022/02/21 19:41:45;;;;;;;14.50;2.00;;;5.10;99.90;;;;;;12515162;28;20065;-86
2022/02/21 19:47:47;;;;;;;7.50;1.35;;;5.00;99.90;;;;;;12520137;28;20049;-85
2022/02/21 19:53:49;;;;;;;10.30;1.55;;;4.90;99.90;;;;;;12528674;28;20102;-85
2022/02/21 19:59:51;;;;;;;15.63;2.05;;;4.70;99.90;;;;;;12511389;28;20139;-86
2022/02/21 20:05:53;;;;;;;10.38;2.17;;;4.80;99.90;;;;;;12513532;28;20053;-86
2022/02/21 20:11:56;;;;;;;11.88;2.20;;;4.80;99.90;;;;;;12514361;28;20155;-85
2022/02/21 20:17:58;;;;;;;6.68;1.67;;;4.80;99.90;;;;;;12540123;28;20056;-88
2022/02/21 20:24:00;;;;;;;5.20;1.00;;;4.90;99.90;;;;;;12511028;28;20117;-87
2022/02/21 20:30:04;;;;;;;9.75;1.98;;;4.20;99.90;;;;;;12500642;28;20804;-87
2022/02/21 20:36:06;;;;;;;11.60;1.37;;;4.20;99.90;;;;;;12529371;28;20044;-85
2022/02/21 20:42:08;;;;;;;10.52;1.30;;;4.10;99.90;;;;;;12517071;28;20041;-86
2022/02/21 20:48:10;;;;;;;15.20;1.83;;;4.40;99.90;;;;;;12514727;28;20057;-86
2022/02/21 20:54:15;;;;;;;10.68;1.50;;;4.50;99.90;;;;;;12461443;28;20635;-87
2022/02/21 21:00:18;;;;;;;14.52;2.30;;;4.50;99.90;;;;;;12510671;28;20888;-86
2022/02/21 21:06:21;;;;;;;18.80;2.80;;;4.50;99.90;;;;;;12522334;28;20048;-86
2022/02/21 21:12:23;;;;;;;23.75;3.47;;;4.70;99.90;;;;;;12508769;28;20048;-85
2022/02/21 21:18:25;;;;;;;24.95;3.55;;;4.80;99.90;;;;;;12522232;28;20641;-87
2022/02/21 21:24:27;;;;;;;20.95;3.13;;;5.00;99.90;;;;;;12519207;28;20048;-85
2022/02/21 21:30:29;;;;;;;20.52;2.70;;;5.00;99.90;;;;;;12518944;28;20112;-85
2022/02/21 21:36:31;;;;;;;22.88;2.85;;;5.10;99.90;;;;;;12528362;28;20131;-87
2022/02/21 21:42:34;;;;;;;22.60;2.75;;;5.10;99.90;;;;;;12530520;28;20080;-86
2022/02/21 21:48:39;;;;;;;16.35;2.35;;;5.10;99.90;;;;;;12540372;28;20089;-87
2022/02/21 21:54:41;;;;;;;23.52;3.35;;;5.10;99.90;;;;;;12543716;28;20056;-86
2022/02/21 22:00:43;;;;;;;20.25;2.55;;;5.10;99.90;;;;;;12541871;28;20110;-83
2022/02/21 22:06:46;;;;;;;22.17;3.03;;;5.20;99.90;;;;;;12535543;28;20063;-85
2022/02/21 22:12:49;;;;;;;30.73;3.58;;;5.20;99.90;;;;;;12551292;28;20087;-84
2022/02/21 22:18:50;;;;;;;26.85;3.70;;;5.20;99.90;;;;;;12535024;28;20052;-85
2022/02/21 22:24:52;;;;;;;29.25;3.10;;;5.20;99.90;;;;;;12525170;28;20052;-84
2022/02/21 22:30:58;;;;;;;21.88;3.38;;;5.30;99.90;;;;;;12519716;28;21046;-86
2022/02/21 22:37:00;;;;;;;24.33;3.25;;;5.30;99.90;;;;;;12533407;28;20100;-84
2022/02/21 22:43:03;;;;;;;28.02;5.50;;;5.40;99.90;;;;;;12552628;28;20055;-85
2022/02/21 22:49:05;;;;;;;27.60;4.80;;;5.40;99.90;;;;;;12522337;28;20056;-84
2022/02/21 22:55:07;;;;;;;22.60;3.10;;;5.50;99.90;;;;;;12527515;28;20037;-84
2022/02/21 23:01:17;;;;;;;26.08;4.43;;;5.50;99.90;;;;;;12523747;28;20052;-84
2022/02/21 23:13:40;;;;;;;26.92;3.72;;;5.60;99.90;;;;;;12544002;28;20049;-84
2022/02/21 23:19:42;;;;;;;24.20;3.53;;;5.40;99.90;;;;;;12540017;28;20068;-84
2022/02/21 23:25:43;;;;;;;30.30;3.63;;;5.30;99.90;;;;;;12528259;28;20064;-85
2022/02/21 23:31:46;;;;;;;21.95;3.88;;;5.20;99.90;;;;;;12533621;28;20073;-86
2022/02/21 23:37:48;;;;;;;29.15;4.00;;;5.10;99.90;;;;;;12538333;28;20057;-85
2022/02/21 23:43:50;;;;;;;18.35;2.28;;;5.10;99.90;;;;;;12541994;28;20041;-83
2022/02/21 23:49:55;;;;;;;12.98;2.80;;;5.10;99.90;;;;;;12527358;28;20151;-84
2022/02/21 23:55:57;;;;;;;18.50;2.70;;;4.90;99.90;;;;;;12550927;28;20136;-84
